createdAt,value
2022-11-09T00:02:47.257Z,10.90
2022-11-09T00:05:59.594Z,12.33
2022-11-09T00:09:10.830Z,10.70
2022-11-09T00:12:17.050Z,9.90
2022-11-09T00:15:23.532Z,10.80
2022-11-09T00:18:29.290Z,10.60
2022-11-09T00:21:35.794Z,10.57
2022-11-09T00:24:44.223Z,10.67
2022-11-09T00:27:52.280Z,11.10
2022-11-09T00:31:03.175Z,10.87
2022-11-09T00:34:09.999Z,11.77
2022-11-09T00:37:15.598Z,12.30
2022-11-09T00:40:24.825Z,12.87
2022-11-09T00:43:30.702Z,13.60
2022-11-09T00:46:37.136Z,14.07
2022-11-09T00:49:42.923Z,13.67
2022-11-09T00:52:49.547Z,14.13
2022-11-09T00:56:03.790Z,15.13
2022-11-09T00:59:13.529Z,15.73
2022-11-09T01:02:19.522Z,13.90
2022-11-09T01:05:25.989Z,13.43
2022-11-09T01:08:31.720Z,13.90
2022-11-09T01:11:41.484Z,13.20
2022-11-09T01:14:47.477Z,12.87
2022-11-09T01:17:54.849Z,12.77
2022-11-09T01:21:06.333Z,11.33
2022-11-09T01:24:13.293Z,10.80
2022-11-09T01:27:21.706Z,11.23
2022-11-09T01:30:28.207Z,10.63
2022-11-09T01:33:35.492Z,9.87
2022-11-09T01:36:42.722Z,10.53
2022-11-09T01:39:48.325Z,10.60
2022-11-09T01:42:57.577Z,10.60
2022-11-09T01:46:07.910Z,9.87
2022-11-09T01:49:24.037Z,9.77
2022-11-09T01:52:35.200Z,8.60
2022-11-09T01:55:42.305Z,9.33
2022-11-09T01:58:54.797Z,9.23
2022-11-09T02:02:03.440Z,9.67
2022-11-09T02:05:15.614Z,9.07
2022-11-09T02:08:26.358Z,9.37
2022-11-09T02:11:32.432Z,10.33
2022-11-09T02:14:42.386Z,9.93
2022-11-09T02:17:48.444Z,9.57
2022-11-09T02:21:02.648Z,10.10
2022-11-09T02:24:09.481Z,10.77
2022-11-09T02:27:16.484Z,9.97
2022-11-09T02:30:25.237Z,9.70
2022-11-09T02:33:32.297Z,9.77
2022-11-09T02:36:41.244Z,10.27
2022-11-09T02:39:52.127Z,10.57
2022-11-09T02:43:00.096Z,10.63
2022-11-09T02:46:08.718Z,9.77
2022-11-09T02:49:16.125Z,9.07
2022-11-09T02:52:24.658Z,8.40
2022-11-09T02:55:33.056Z,8.87
2022-11-09T02:58:39.003Z,8.57
2022-11-09T03:01:45.576Z,9.03
2022-11-09T03:04:51.592Z,8.63
2022-11-09T03:08:03.147Z,8.57
2022-11-09T03:11:12.594Z,9.03
2022-11-09T03:14:19.649Z,9.53
2022-11-09T03:17:30.418Z,9.03
2022-11-09T03:20:37.208Z,10.30
2022-11-09T03:23:46.032Z,10.33
2022-11-09T03:26:53.112Z,9.30
2022-11-09T03:29:58.987Z,8.90
2022-11-09T03:33:10.322Z,10.87
2022-11-09T03:36:17.178Z,10.37
2022-11-09T03:39:26.522Z,10.90
2022-11-09T03:42:32.469Z,11.00
2022-11-09T03:45:39.652Z,10.93
2022-11-09T03:48:45.354Z,10.47
2022-11-09T03:51:51.869Z,11.30
2022-11-09T03:55:00.241Z,11.13
2022-11-09T03:58:09.886Z,9.77
2022-11-09T04:01:15.566Z,9.70
2022-11-09T04:04:22.149Z,9.93
2022-11-09T04:07:27.997Z,8.50
2022-11-09T04:10:37.251Z,9.53
2022-11-09T04:13:42.843Z,9.10
2022-11-09T04:16:49.523Z,8.73
2022-11-09T04:19:55.132Z,8.60
2022-11-09T04:23:03.405Z,8.73
2022-11-09T04:26:12.004Z,8.47
2022-11-09T04:29:18.474Z,8.77
2022-11-09T04:32:24.106Z,8.83
2022-11-09T04:35:32.274Z,9.07
2022-11-09T04:38:38.188Z,9.73
2022-11-09T04:41:47.492Z,10.33
2022-11-09T04:44:53.144Z,10.87
2022-11-09T04:48:01.023Z,10.33
2022-11-09T04:51:10.622Z,10.37
2022-11-09T04:54:17.298Z,11.17
2022-11-09T04:57:25.709Z,10.40
2022-11-09T05:00:32.281Z,11.00
2022-11-09T05:03:38.292Z,10.57
2022-11-09T05:06:44.904Z,8.70
2022-11-09T05:09:50.938Z,8.57
2022-11-09T05:13:04.133Z,8.93
2022-11-09T05:16:10.345Z,9.00
2022-11-09T05:19:16.833Z,9.17
2022-11-09T05:22:38.138Z,9.13
2022-11-09T05:25:44.674Z,9.50
2022-11-09T05:28:53.109Z,9.57
2022-11-09T05:31:59.666Z,9.70
2022-11-09T05:35:07.233Z,10.93
2022-11-09T05:38:13.779Z,11.80
2022-11-09T05:41:20.198Z,13.20
2022-11-09T05:44:34.528Z,10.53
2022-11-09T05:47:41.307Z,11.70
2022-11-09T05:50:48.177Z,11.73
2022-11-09T05:54:01.212Z,9.73
2022-11-09T05:57:08.770Z,10.27
2022-11-09T06:00:19.084Z,10.80
2022-11-09T06:03:25.591Z,10.50
2022-11-09T06:06:31.225Z,10.10
2022-11-09T06:09:37.832Z,10.47
2022-11-09T06:12:43.683Z,11.03
2022-11-09T06:15:58.845Z,10.40
2022-11-09T06:19:06.468Z,11.00
2022-11-09T06:22:13.117Z,11.10
2022-11-09T06:25:18.921Z,11.23
2022-11-09T06:28:25.371Z,11.23
2022-11-09T06:31:33.817Z,11.47
2022-11-09T06:34:40.327Z,11.67
2022-11-09T06:37:45.953Z,11.77
2022-11-09T06:40:54.358Z,12.50
2022-11-09T06:44:00.663Z,12.67
2022-11-09T06:47:11.640Z,13.53
2022-11-09T06:50:18.284Z,13.20
2022-11-09T06:53:24.852Z,13.30
2022-11-09T06:56:30.885Z,13.30
2022-11-09T06:59:38.253Z,13.37
2022-11-09T07:02:46.948Z,14.03
2022-11-09T07:05:55.310Z,12.97
2022-11-09T07:09:01.280Z,13.53
2022-11-09T07:12:09.306Z,12.80
2022-11-09T07:15:15.696Z,11.50
2022-11-09T07:18:25.559Z,12.87
2022-11-09T07:21:31.303Z,13.13
2022-11-09T07:24:37.812Z,12.37
2022-11-09T07:27:43.785Z,12.27
2022-11-09T07:30:53.143Z,12.20
2022-11-09T07:34:04.983Z,12.30
2022-11-09T07:37:14.308Z,11.37
2022-11-09T07:40:20.223Z,11.17
2022-11-09T07:43:26.866Z,9.80
2022-11-09T07:46:35.763Z,9.80
2022-11-09T07:49:45.252Z,10.37
2022-11-09T07:52:51.184Z,10.60
2022-11-09T07:56:02.520Z,10.97
2022-11-09T07:59:08.831Z,9.93
2022-11-09T08:02:16.483Z,10.60
2022-11-09T08:05:25.236Z,9.47
2022-11-09T08:08:31.722Z,10.43
2022-11-09T08:11:37.382Z,9.53
2022-11-09T08:14:43.872Z,10.43
2022-11-09T08:17:49.503Z,9.30
2022-11-09T08:20:58.827Z,10.20
2022-11-09T08:24:06.393Z,9.30
2022-11-09T08:27:13.193Z,8.90
2022-11-09T08:30:21.066Z,8.03
2022-11-09T08:33:28.182Z,8.63
2022-11-09T08:36:36.606Z,9.10
2022-11-09T08:39:43.491Z,8.53
2022-11-09T08:42:49.637Z,8.03
2022-11-09T08:45:56.143Z,8.97
2022-11-09T08:49:05.193Z,8.23
2022-11-09T08:52:14.613Z,9.50
2022-11-09T08:55:20.782Z,9.07
2022-11-09T08:58:27.719Z,7.67
2022-11-09T09:01:33.367Z,8.77
2022-11-09T09:04:39.924Z,7.50
2022-11-09T09:07:48.441Z,7.47
2022-11-09T09:10:54.924Z,7.20
2022-11-09T09:14:00.753Z,7.20
2022-11-09T09:17:09.112Z,7.53
2022-11-09T09:20:14.878Z,7.23
2022-11-09T09:23:24.499Z,6.87
